sensor_id;sensor_type;location;lat;lon;timestamp;temperature;humidity
66013;DHT22;52783;50.502;8.190;2022-12-18T00:01:12;-7.50;99.90
66013;DHT22;52783;50.502;8.190;2022-12-18T00:03:38;-7.50;99.90
66013;DHT22;52783;50.502;8.190;2022-12-18T00:06:04;-7.50;99.90
66013;DHT22;52783;50.502;8.190;2022-12-18T00:08:30;-7.40;99.90
66013;DHT22;52783;50.502;8.190;2022-12-18T00:10:55;-7.40;99.90
66013;DHT22;52783;50.502;8.190;2022-12-18T00:13:28;-7.40;99.90
66013;DHT22;52783;50.502;8.190;2022-12-18T00:15:53;-7.40;99.90
66013;DHT22;52783;50.502;8.190;2022-12-18T00:18:19;-7.40;99.90
66013;DHT22;52783;50.502;8.190;2022-12-18T00:20:44;-7.30;99.90
66013;DHT22;52783;50.502;8.190;2022-12-18T00:23:10;-7.30;99.90
66013;DHT22;52783;50.502;8.190;2022-12-18T00:25:36;-7.30;99.90
66013;DHT22;52783;50.502;8.190;2022-12-18T00:28:03;-7.30;99.90
66013;DHT22;52783;50.502;8.190;2022-12-18T00:30:29;-7.40;99.90
66013;DHT22;52783;50.502;8.190;2022-12-18T00:32:55;-7.40;99.90
66013;DHT22;52783;50.502;8.190;2022-12-18T00:35:21;-7.40;99.90
66013;DHT22;52783;50.502;8.190;2022-12-18T00:37:46;-7.40;99.90
66013;DHT22;52783;50.502;8.190;2022-12-18T00:40:12;-7.50;99.90
66013;DHT22;52783;50.502;8.190;2022-12-18T00:42:37;-7.50;99.90
66013;DHT22;52783;50.502;8.190;2022-12-18T00:45:29;-7.60;99.90
66013;DHT22;52783;50.502;8.190;2022-12-18T00:47:56;-7.60;99.90
66013;DHT22;52783;50.502;8.190;2022-12-18T00:50:23;-7.70;99.90
66013;DHT22;52783;50.502;8.190;2022-12-18T00:52:49;-7.80;99.90
66013;DHT22;52783;50.502;8.190;2022-12-18T00:55:15;-7.90;99.90
66013;DHT22;52783;50.502;8.190;2022-12-18T00:57:40;-7.90;99.90
66013;DHT22;52783;50.502;8.190;2022-12-18T01:00:08;-7.90;99.90
66013;DHT22;52783;50.502;8.190;2022-12-18T01:02:34;-8.10;99.90
66013;DHT22;52783;50.502;8.190;2022-12-18T01:05:00;-8.10;99.90
66013;DHT22;52783;50.502;8.190;2022-12-18T01:07:26;-8.10;99.90
66013;DHT22;52783;50.502;8.190;2022-12-18T01:09:51;-8.10;99.90
66013;DHT22;52783;50.502;8.190;2022-12-18T01:12:17;-8.10;99.90
66013;DHT22;52783;50.502;8.190;2022-12-18T01:14:43;-8.20;99.90
66013;DHT22;52783;50.502;8.190;2022-12-18T01:17:08;-8.10;99.90
66013;DHT22;52783;50.502;8.190;2022-12-18T01:19:34;-8.10;99.90
66013;DHT22;52783;50.502;8.190;2022-12-18T01:21:59;-8.10;99.90
66013;DHT22;52783;50.502;8.190;2022-12-18T01:24:25;-8.20;99.90
66013;DHT22;52783;50.502;8.190;2022-12-18T01:26:51;-8.20;99.90
66013;DHT22;52783;50.502;8.190;2022-12-18T01:29:16;-8.10;99.90
66013;DHT22;52783;50.502;8.190;2022-12-18T01:31:42;-8.00;99.90
66013;DHT22;52783;50.502;8.190;2022-12-18T01:34:08;-8.00;99.90
66013;DHT22;52783;50.502;8.190;2022-12-18T01:36:36;-8.00;99.90
66013;DHT22;52783;50.502;8.190;2022-12-18T01:39:07;-8.00;99.90
66013;DHT22;52783;50.502;8.190;2022-12-18T01:41:35;-8.00;99.90
66013;DHT22;52783;50.502;8.190;2022-12-18T01:47:25;-8.10;99.90
66013;DHT22;52783;50.502;8.190;2022-12-18T01:49:51;-8.10;99.90
66013;DHT22;52783;50.502;8.190;2022-12-18T01:52:18;-8.20;99.90
66013;DHT22;52783;50.502;8.190;2022-12-18T01:54:46;-8.20;99.90
66013;DHT22;52783;50.502;8.190;2022-12-18T01:57:12;-8.20;99.90
66013;DHT22;52783;50.502;8.190;2022-12-18T01:59:39;-8.20;99.90
66013;DHT22;52783;50.502;8.190;2022-12-18T02:02:06;-8.10;99.90
66013;DHT22;52783;50.502;8.190;2022-12-18T02:04:32;-8.10;99.90
66013;DHT22;52783;50.502;8.190;2022-12-18T02:09:47;-8.20;99.90
66013;DHT22;52783;50.502;8.190;2022-12-18T02:12:20;-8.10;99.90
66013;DHT22;52783;50.502;8.190;2022-12-18T02:15:15;-8.10;99.90
66013;DHT22;52783;50.502;8.190;2022-12-18T02:17:58;-8.20;99.90
66013;DHT22;52783;50.502;8.190;2022-12-18T02:20:35;-8.20;99.90
66013;DHT22;52783;50.502;8.190;2022-12-18T02:26:20;-8.20;99.90
66013;DHT22;52783;50.502;8.190;2022-12-18T02:29:11;-8.30;99.90
66013;DHT22;52783;50.502;8.190;2022-12-18T02:31:47;-8.20;99.90
66013;DHT22;52783;50.502;8.190;2022-12-18T02:34:16;-8.20;99.90
66013;DHT22;52783;50.502;8.190;2022-12-18T02:36:44;-8.20;99.90
66013;DHT22;52783;50.502;8.190;2022-12-18T02:39:12;-8.30;99.90
66013;DHT22;52783;50.502;8.190;2022-12-18T02:41:38;-8.30;99.90
66013;DHT22;52783;50.502;8.190;2022-12-18T02:44:10;-8.30;99.90
66013;DHT22;52783;50.502;8.190;2022-12-18T02:46:45;-8.20;99.90
66013;DHT22;52783;50.502;8.190;2022-12-18T02:49:44;-8.10;99.90
66013;DHT22;52783;50.502;8.190;2022-12-18T03:01:11;-7.60;99.90
66013;DHT22;52783;50.502;8.190;2022-12-18T03:03:50;-7.50;99.90
66013;DHT22;52783;50.502;8.190;2022-12-18T03:06:24;-7.50;99.90
66013;DHT22;52783;50.502;8.190;2022-12-18T03:08:57;-7.40;99.90
66013;DHT22;52783;50.502;8.190;2022-12-18T03:11:25;-7.40;99.90
66013;DHT22;52783;50.502;8.190;2022-12-18T03:14:12;-7.30;99.90
66013;DHT22;52783;50.502;8.190;2022-12-18T03:16:40;-7.20;99.90
66013;DHT22;52783;50.502;8.190;2022-12-18T03:19:16;-7.20;99.90
66013;DHT22;52783;50.502;8.190;2022-12-18T03:21:48;-7.10;99.90
66013;DHT22;52783;50.502;8.190;2022-12-18T03:24:15;-7.00;99.90
66013;DHT22;52783;50.502;8.190;2022-12-18T03:26:45;-7.00;99.90
66013;DHT22;52783;50.502;8.190;2022-12-18T03:29:28;-7.00;99.90
66013;DHT22;52783;50.502;8.190;2022-12-18T03:32:05;-7.10;99.90
66013;DHT22;52783;50.502;8.190;2022-12-18T03:34:35;-7.10;99.90
66013;DHT22;52783;50.502;8.190;2022-12-18T03:37:03;-7.10;99.90
66013;DHT22;52783;50.502;8.190;2022-12-18T03:39:29;-7.00;99.90
66013;DHT22;52783;50.502;8.190;2022-12-18T03:47:11;-7.00;99.90
66013;DHT22;52783;50.502;8.190;2022-12-18T03:50:00;-7.20;99.90
66013;DHT22;52783;50.502;8.190;2022-12-18T03:52:48;-7.40;99.90
66013;DHT22;52783;50.502;8.190;2022-12-18T03:55:15;-7.50;99.90
66013;DHT22;52783;50.502;8.190;2022-12-18T03:57:42;-7.60;99.90
66013;DHT22;52783;50.502;8.190;2022-12-18T04:00:12;-7.60;99.90
66013;DHT22;52783;50.502;8.190;2022-12-18T04:02:42;-7.50;99.90
66013;DHT22;52783;50.502;8.190;2022-12-18T04:05:10;-7.40;99.90
66013;DHT22;52783;50.502;8.190;2022-12-18T04:07:36;-7.40;99.90
66013;DHT22;52783;50.502;8.190;2022-12-18T04:10:06;-7.50;99.90
66013;DHT22;52783;50.502;8.190;2022-12-18T04:12:32;-7.60;99.90
66013;DHT22;52783;50.502;8.190;2022-12-18T04:14:57;-7.60;99.90
66013;DHT22;52783;50.502;8.190;2022-12-18T04:17:23;-7.70;99.90
66013;DHT22;52783;50.502;8.190;2022-12-18T04:19:49;-7.60;99.90
66013;DHT22;52783;50.502;8.190;2022-12-18T04:22:14;-7.40;99.90
66013;DHT22;52783;50.502;8.190;2022-12-18T04:24:40;-7.30;99.90
66013;DHT22;52783;50.502;8.190;2022-12-18T04:27:06;-7.20;99.90
66013;DHT22;52783;50.502;8.190;2022-12-18T04:29:32;-7.10;99.90
66013;DHT22;52783;50.502;8.190;2022-12-18T04:31:58;-7.10;99.90
66013;DHT22;52783;50.502;8.190;2022-12-18T04:34:23;-7.10;99.90
66013;DHT22;52783;50.502;8.190;2022-12-18T04:36:49;-7.00;99.90
66013;DHT22;52783;50.502;8.190;2022-12-18T04:39:15;-7.00;99.90
66013;DHT22;52783;50.502;8.190;2022-12-18T04:41:40;-7.20;99.90
66013;DHT22;52783;50.502;8.190;2022-12-18T04:44:06;-7.20;99.90
66013;DHT22;52783;50.502;8.190;2022-12-18T04:46:32;-7.30;99.90
66013;DHT22;52783;50.502;8.190;2022-12-18T04:48:58;-7.20;99.90
66013;DHT22;52783;50.502;8.190;2022-12-18T04:51:23;-7.20;99.90
66013;DHT22;52783;50.502;8.190;2022-12-18T04:53:49;-7.00;99.90
66013;DHT22;52783;50.502;8.190;2022-12-18T04:56:15;-6.80;99.90
66013;DHT22;52783;50.502;8.190;2022-12-18T04:58:43;-6.70;99.90
66013;DHT22;52783;50.502;8.190;2022-12-18T05:01:09;-6.60;99.90
66013;DHT22;52783;50.502;8.190;2022-12-18T05:03:35;-6.60;99.90
66013;DHT22;52783;50.502;8.190;2022-12-18T05:06:01;-6.60;99.90
66013;DHT22;52783;50.502;8.190;2022-12-18T05:08:27;-6.60;99.90
66013;DHT22;52783;50.502;8.190;2022-12-18T05:11:00;-6.50;99.90
66013;DHT22;52783;50.502;8.190;2022-12-18T05:13:26;-6.50;99.90
66013;DHT22;52783;50.502;8.190;2022-12-18T05:15:52;-6.50;99.90
66013;DHT22;52783;50.502;8.190;2022-12-18T05:18:18;-6.40;99.90
66013;DHT22;52783;50.502;8.190;2022-12-18T05:20:43;-6.50;99.90
66013;DHT22;52783;50.502;8.190;2022-12-18T05:23:09;-6.60;99.90
66013;DHT22;52783;50.502;8.190;2022-12-18T05:25:34;-6.50;99.90
66013;DHT22;52783;50.502;8.190;2022-12-18T05:28:00;-6.50;99.90
66013;DHT22;52783;50.502;8.190;2022-12-18T05:30:26;-6.50;99.90
66013;DHT22;52783;50.502;8.190;2022-12-18T05:32:51;-6.50;99.90
66013;DHT22;52783;50.502;8.190;2022-12-18T05:35:17;-6.60;99.90
66013;DHT22;52783;50.502;8.190;2022-12-18T05:37:42;-6.50;99.90
66013;DHT22;52783;50.502;8.190;2022-12-18T05:40:09;-6.40;99.90
66013;DHT22;52783;50.502;8.190;2022-12-18T05:42:35;-6.40;99.90
66013;DHT22;52783;50.502;8.190;2022-12-18T05:45:00;-6.40;99.90
66013;DHT22;52783;50.502;8.190;2022-12-18T05:47:27;-6.40;99.90
66013;DHT22;52783;50.502;8.190;2022-12-18T05:49:52;-6.40;99.90
66013;DHT22;52783;50.502;8.190;2022-12-18T05:52:18;-6.40;99.90
66013;DHT22;52783;50.502;8.190;2022-12-18T05:54:43;-6.40;99.90
66013;DHT22;52783;50.502;8.190;2022-12-18T05:57:09;-6.50;99.90
66013;DHT22;52783;50.502;8.190;2022-12-18T05:59:35;-6.60;99.90
66013;DHT22;52783;50.502;8.190;2022-12-18T06:02:01;-6.60;99.90
66013;DHT22;52783;50.502;8.190;2022-12-18T06:04:27;-6.60;99.90
66013;DHT22;52783;50.502;8.190;2022-12-18T06:06:54;-6.60;99.90
66013;DHT22;52783;50.502;8.190;2022-12-18T06:09:19;-6.70;99.90
66013;DHT22;52783;50.502;8.190;2022-12-18T06:11:45;-6.70;99.90
66013;DHT22;52783;50.502;8.190;2022-12-18T06:14:10;-6.70;99.90
66013;DHT22;52783;50.502;8.190;2022-12-18T06:16:36;-6.80;99.90
66013;DHT22;52783;50.502;8.190;2022-12-18T06:19:03;-6.80;99.90
66013;DHT22;52783;50.502;8.190;2022-12-18T06:21:30;-6.80;99.90
66013;DHT22;52783;50.502;8.190;2022-12-18T06:23:56;-6.80;99.90
66013;DHT22;52783;50.502;8.190;2022-12-18T06:26:23;-6.80;99.90
66013;DHT22;52783;50.502;8.190;2022-12-18T06:28:49;-6.80;99.90
66013;DHT22;52783;50.502;8.190;2022-12-18T06:31:14;-6.80;99.90
66013;DHT22;52783;50.502;8.190;2022-12-18T06:33:40;-6.90;99.90
66013;DHT22;52783;50.502;8.190;2022-12-18T06:36:11;-6.90;99.90
66013;DHT22;52783;50.502;8.190;2022-12-18T06:38:41;-6.90;99.90
66013;DHT22;52783;50.502;8.190;2022-12-18T06:41:11;-7.00;99.90
66013;DHT22;52783;50.502;8.190;2022-12-18T06:43:38;-7.00;99.90
66013;DHT22;52783;50.502;8.190;2022-12-18T06:46:04;-7.00;99.90
66013;DHT22;52783;50.502;8.190;2022-12-18T06:48:30;-7.00;99.90
66013;DHT22;52783;50.502;8.190;2022-12-18T06:50:56;-7.00;99.90
66013;DHT22;52783;50.502;8.190;2022-12-18T06:53:22;-7.00;99.90
66013;DHT22;52783;50.502;8.190;2022-12-18T06:55:47;-6.90;99.90
66013;DHT22;52783;50.502;8.190;2022-12-18T06:58:13;-6.90;99.90
66013;DHT22;52783;50.502;8.190;2022-12-18T07:00:39;-6.90;99.90
66013;DHT22;52783;50.502;8.190;2022-12-18T07:03:04;-7.00;99.90
66013;DHT22;52783;50.502;8.190;2022-12-18T07:05:30;-6.90;99.90
66013;DHT22;52783;50.502;8.190;2022-12-18T07:07:56;-6.90;99.90
66013;DHT22;52783;50.502;8.190;2022-12-18T07:10:21;-6.90;99.90
66013;DHT22;52783;50.502;8.190;2022-12-18T07:12:47;-6.80;99.90
66013;DHT22;52783;50.502;8.190;2022-12-18T07:15:12;-6.90;99.90
66013;DHT22;52783;50.502;8.190;2022-12-18T07:17:38;-6.90;99.90
66013;DHT22;52783;50.502;8.190;2022-12-18T07:20:04;-6.80;99.90
66013;DHT22;52783;50.502;8.190;2022-12-18T07:22:30;-6.80;99.90
66013;DHT22;52783;50.502;8.190;2022-12-18T07:24:55;-6.80;99.90
66013;DHT22;52783;50.502;8.190;2022-12-18T07:27:22;-6.70;99.90
66013;DHT22;52783;50.502;8.190;2022-12-18T07:29:48;-6.50;99.90
66013;DHT22;52783;50.502;8.190;2022-12-18T07:32:13;-6.40;99.90
66013;DHT22;52783;50.502;8.190;2022-12-18T07:34:39;-6.30;99.90
66013;DHT22;52783;50.502;8.190;2022-12-18T07:37:04;-6.10;99.90
66013;DHT22;52783;50.502;8.190;2022-12-18T07:39:30;-6.10;99.90
66013;DHT22;52783;50.502;8.190;2022-12-18T07:41:56;-6.10;99.90
66013;DHT22;52783;50.502;8.190;2022-12-18T07:44:40;-6.00;99.90
66013;DHT22;52783;50.502;8.190;2022-12-18T07:47:05;-6.10;99.90
66013;DHT22;52783;50.502;8.190;2022-12-18T07:49:31;-6.00;99.90
66013;DHT22;52783;50.502;8.190;2022-12-18T07:51:57;-5.90;99.90
66013;DHT22;52783;50.502;8.190;2022-12-18T07:54:23;-5.90;99.90
66013;DHT22;52783;50.502;8.190;2022-12-18T07:56:50;-5.90;99.90
66013;DHT22;52783;50.502;8.190;2022-12-18T07:59:16;-5.80;99.90
66013;DHT22;52783;50.502;8.190;2022-12-18T08:01:41;-5.80;99.90
66013;DHT22;52783;50.502;8.190;2022-12-18T08:04:07;-5.70;99.90
66013;DHT22;52783;50.502;8.190;2022-12-18T08:06:32;-5.70;99.90
66013;DHT22;52783;50.502;8.190;2022-12-18T08:08:58;-5.70;99.90
66013;DHT22;52783;50.502;8.190;2022-12-18T08:11:25;-5.60;99.90
66013;DHT22;52783;50.502;8.190;2022-12-18T08:13:51;-5.50;99.90
66013;DHT22;52783;50.502;8.190;2022-12-18T08:16:17;-5.50;99.90
66013;DHT22;52783;50.502;8.190;2022-12-18T08:18:43;-5.40;99.90
66013;DHT22;52783;50.502;8.190;2022-12-18T08:21:13;-5.40;99.90
66013;DHT22;52783;50.502;8.190;2022-12-18T08:23:39;-5.20;99.90
66013;DHT22;52783;50.502;8.190;2022-12-18T08:26:04;-5.20;99.90
66013;DHT22;52783;50.502;8.190;2022-12-18T08:28:30;-5.20;99.90
66013;DHT22;52783;50.502;8.190;2022-12-18T08:30:56;-5.10;99.90
66013;DHT22;52783;50.502;8.190;2022-12-18T08:33:21;-5.00;99.90
66013;DHT22;52783;50.502;8.190;2022-12-18T08:35:47;-4.90;99.90
66013;DHT22;52783;50.502;8.190;2022-12-18T08:38:12;-4.80;99.90
66013;DHT22;52783;50.502;8.190;2022-12-18T08:40:38;-4.80;99.90
66013;DHT22;52783;50.502;8.190;2022-12-18T08:43:03;-4.80;99.90
66013;DHT22;52783;50.502;8.190;2022-12-18T08:46:01;-4.60;99.90
66013;DHT22;52783;50.502;8.190;2022-12-18T08:48:27;-4.40;99.90
66013;DHT22;52783;50.502;8.190;2022-12-18T08:50:56;-4.60;99.90
66013;DHT22;52783;50.502;8.190;2022-12-18T08:53:22;-4.80;99.90
66013;DHT22;52783;50.502;8.190;2022-12-18T08:55:47;-4.70;99.90
66013;DHT22;52783;50.502;8.190;2022-12-18T08:58:13;-4.80;99.90
66013;DHT22;52783;50.502;8.190;2022-12-18T09:00:38;-4.70;99.90
66013;DHT22;52783;50.502;8.190;2022-12-18T09:03:04;-4.80;99.90
66013;DHT22;52783;50.502;8.190;2022-12-18T09:05:30;-4.90;99.90
66013;DHT22;52783;50.502;8.190;2022-12-18T09:07:55;-4.70;99.90
66013;DHT22;52783;50.502;8.190;2022-12-18T09:10:21;-4.90;99.90
66013;DHT22;52783;50.502;8.190;2022-12-18T09:12:47;-4.80;99.90
66013;DHT22;52783;50.502;8.190;2022-12-18T09:15:13;-4.70;99.90
66013;DHT22;52783;50.502;8.190;2022-12-18T09:17:38;-4.80;99.90
66013;DHT22;52783;50.502;8.190;2022-12-18T09:20:04;-4.70;99.90
66013;DHT22;52783;50.502;8.190;2022-12-18T09:22:30;-4.70;99.90
66013;DHT22;52783;50.502;8.190;2022-12-18T09:24:56;-4.50;99.90
66013;DHT22;52783;50.502;8.190;2022-12-18T09:27:21;-4.40;99.90
66013;DHT22;52783;50.502;8.190;2022-12-18T09:29:47;-4.50;99.90
66013;DHT22;52783;50.502;8.190;2022-12-18T09:32:12;-4.50;99.90
66013;DHT22;52783;50.502;8.190;2022-12-18T09:34:38;-4.40;99.90
66013;DHT22;52783;50.502;8.190;2022-12-18T09:37:03;-4.40;99.90
66013;DHT22;52783;50.502;8.190;2022-12-18T09:39:29;-4.40;99.90
66013;DHT22;52783;50.502;8.190;2022-12-18T09:41:57;-4.40;99.90
66013;DHT22;52783;50.502;8.190;2022-12-18T09:49:42;-4.30;99.90
66013;DHT22;52783;50.502;8.190;2022-12-18T09:52:35;-4.30;99.90
66013;DHT22;52783;50.502;8.190;2022-12-18T09:57:52;-4.10;99.90
66013;DHT22;52783;50.502;8.190;2022-12-18T10:00:22;-4.00;99.90
66013;DHT22;52783;50.502;8.190;2022-12-18T10:02:49;-4.00;99.90
66013;DHT22;52783;50.502;8.190;2022-12-18T10:05:20;-4.10;99.90
66013;DHT22;52783;50.502;8.190;2022-12-18T10:07:59;-4.20;99.90
66013;DHT22;52783;50.502;8.190;2022-12-18T10:13:31;-3.80;99.90
66013;DHT22;52783;50.502;8.190;2022-12-18T10:21:23;-4.00;99.90
66013;DHT22;52783;50.502;8.190;2022-12-18T10:27:18;-4.30;99.90
66013;DHT22;52783;50.502;8.190;2022-12-18T10:29:46;-4.00;99.90
66013;DHT22;52783;50.502;8.190;2022-12-18T10:32:20;-4.00;99.90
66013;DHT22;52783;50.502;8.190;2022-12-18T10:34:51;-4.10;99.90
66013;DHT22;52783;50.502;8.190;2022-12-18T10:37:19;-3.90;99.90
66013;DHT22;52783;50.502;8.190;2022-12-18T10:39:46;-3.70;99.90
66013;DHT22;52783;50.502;8.190;2022-12-18T10:42:19;-3.80;99.90
66013;DHT22;52783;50.502;8.190;2022-12-18T10:44:45;-4.00;99.90
66013;DHT22;52783;50.502;8.190;2022-12-18T10:47:15;-3.90;99.90
66013;DHT22;52783;50.502;8.190;2022-12-18T10:49:49;-3.90;99.90
66013;DHT22;52783;50.502;8.190;2022-12-18T10:52:18;-3.90;99.90
66013;DHT22;52783;50.502;8.190;2022-12-18T10:54:53;-4.00;99.90
66013;DHT22;52783;50.502;8.190;2022-12-18T10:57:37;-4.00;99.90
66013;DHT22;52783;50.502;8.190;2022-12-18T11:00:27;-4.00;99.90
66013;DHT22;52783;50.502;8.190;2022-12-18T11:02:53;-4.00;99.90
66013;DHT22;52783;50.502;8.190;2022-12-18T11:05:26;-3.80;99.90
66013;DHT22;52783;50.502;8.190;2022-12-18T11:07:52;-4.00;99.90
66013;DHT22;52783;50.502;8.190;2022-12-18T11:10:21;-4.00;99.90
66013;DHT22;52783;50.502;8.190;2022-12-18T11:12:47;-3.90;99.90
66013;DHT22;52783;50.502;8.190;2022-12-18T11:15:19;-3.90;99.90
66013;DHT22;52783;50.502;8.190;2022-12-18T11:17:48;-3.60;99.90
66013;DHT22;52783;50.502;8.190;2022-12-18T11:20:31;-3.50;99.90
66013;DHT22;52783;50.502;8.190;2022-12-18T11:23:04;-3.90;99.90
66013;DHT22;52783;50.502;8.190;2022-12-18T11:25:31;-3.80;99.90
66013;DHT22;52783;50.502;8.190;2022-12-18T11:28:03;-3.70;99.90
66013;DHT22;52783;50.502;8.190;2022-12-18T11:30:35;-3.60;99.90
66013;DHT22;52783;50.502;8.190;2022-12-18T11:33:15;-3.40;99.90
66013;DHT22;52783;50.502;8.190;2022-12-18T11:38:24;-3.60;99.90
66013;DHT22;52783;50.502;8.190;2022-12-18T11:46:05;-3.60;99.90
66013;DHT22;52783;50.502;8.190;2022-12-18T11:48:40;-3.60;99.90
66013;DHT22;52783;50.502;8.190;2022-12-18T11:51:15;-3.60;99.90
66013;DHT22;52783;50.502;8.190;2022-12-18T11:53:45;-3.50;99.90
66013;DHT22;52783;50.502;8.190;2022-12-18T11:58:50;-3.60;99.90
66013;DHT22;52783;50.502;8.190;2022-12-18T12:10:00;-3.20;99.90
66013;DHT22;52783;50.502;8.190;2022-12-18T12:12:57;-3.00;99.90
66013;DHT22;52783;50.502;8.190;2022-12-18T12:21:12;-3.90;99.90
66013;DHT22;52783;50.502;8.190;2022-12-18T12:24:34;-3.60;99.90
66013;DHT22;52783;50.502;8.190;2022-12-18T12:30:03;-4.00;99.90
66013;DHT22;52783;50.502;8.190;2022-12-18T12:35:09;-4.10;99.90
66013;DHT22;52783;50.502;8.190;2022-12-18T12:40:30;-3.90;99.90
66013;DHT22;52783;50.502;8.190;2022-12-18T12:46:06;-4.10;99.90
66013;DHT22;52783;50.502;8.190;2022-12-18T12:48:46;-4.00;99.90
66013;DHT22;52783;50.502;8.190;2022-12-18T12:51:21;-3.80;99.90
66013;DHT22;52783;50.502;8.190;2022-12-18T12:53:49;-4.00;99.90
66013;DHT22;52783;50.502;8.190;2022-12-18T12:56:17;-3.80;99.90
66013;DHT22;52783;50.502;8.190;2022-12-18T13:01:37;-3.80;99.90
66013;DHT22;52783;50.502;8.190;2022-12-18T13:18:24;-3.60;99.90
66013;DHT22;52783;50.502;8.190;2022-12-18T13:20:51;-3.80;99.90
66013;DHT22;52783;50.502;8.190;2022-12-18T13:23:37;-3.80;99.90
66013;DHT22;52783;50.502;8.190;2022-12-18T13:34:21;-3.90;99.90
66013;DHT22;52783;50.502;8.190;2022-12-18T13:36:49;-3.80;99.90
66013;DHT22;52783;50.502;8.190;2022-12-18T13:41:46;-3.80;99.90
66013;DHT22;52783;50.502;8.190;2022-12-18T13:44:33;-3.90;99.90
66013;DHT22;52783;50.502;8.190;2022-12-18T13:47:02;-3.90;99.90
66013;DHT22;52783;50.502;8.190;2022-12-18T13:49:43;-4.00;99.90
66013;DHT22;52783;50.502;8.190;2022-12-18T13:52:18;-4.00;99.90
66013;DHT22;52783;50.502;8.190;2022-12-18T13:54:50;-4.00;99.90
66013;DHT22;52783;50.502;8.190;2022-12-18T13:57:33;-3.80;99.90
66013;DHT22;52783;50.502;8.190;2022-12-18T14:02:50;-4.10;99.90
66013;DHT22;52783;50.502;8.190;2022-12-18T14:05:31;-4.00;99.90
66013;DHT22;52783;50.502;8.190;2022-12-18T14:08:06;-4.20;99.90
66013;DHT22;52783;50.502;8.190;2022-12-18T14:10:33;-4.20;99.90
66013;DHT22;52783;50.502;8.190;2022-12-18T14:13:05;-4.20;99.90
66013;DHT22;52783;50.502;8.190;2022-12-18T14:15:42;-4.10;99.90
66013;DHT22;52783;50.502;8.190;2022-12-18T14:18:24;-4.10;99.90
66013;DHT22;52783;50.502;8.190;2022-12-18T14:20:54;-4.10;99.90
66013;DHT22;52783;50.502;8.190;2022-12-18T14:25:54;-4.10;99.90
66013;DHT22;52783;50.502;8.190;2022-12-18T14:28:20;-4.20;99.90
66013;DHT22;52783;50.502;8.190;2022-12-18T14:30:47;-4.20;99.90
66013;DHT22;52783;50.502;8.190;2022-12-18T14:33:18;-4.30;99.90
66013;DHT22;52783;50.502;8.190;2022-12-18T14:36:04;-4.30;99.90
66013;DHT22;52783;50.502;8.190;2022-12-18T14:38:33;-4.20;99.90
66013;DHT22;52783;50.502;8.190;2022-12-18T14:41:09;-4.20;99.90
66013;DHT22;52783;50.502;8.190;2022-12-18T14:43:37;-4.30;99.90
66013;DHT22;52783;50.502;8.190;2022-12-18T14:46:05;-4.20;99.90
66013;DHT22;52783;50.502;8.190;2022-12-18T14:48:38;-4.40;99.90
66013;DHT22;52783;50.502;8.190;2022-12-18T14:51:06;-4.50;99.90
66013;DHT22;52783;50.502;8.190;2022-12-18T14:53:35;-4.40;99.90
66013;DHT22;52783;50.502;8.190;2022-12-18T14:56:03;-4.40;99.90
66013;DHT22;52783;50.502;8.190;2022-12-18T14:58:35;-4.50;99.90
66013;DHT22;52783;50.502;8.190;2022-12-18T15:01:01;-4.50;99.90
66013;DHT22;52783;50.502;8.190;2022-12-18T15:03:26;-4.40;99.90
66013;DHT22;52783;50.502;8.190;2022-12-18T15:05:52;-4.50;99.90
66013;DHT22;52783;50.502;8.190;2022-12-18T15:08:34;-4.60;99.90
66013;DHT22;52783;50.502;8.190;2022-12-18T15:11:00;-4.50;99.90
66013;DHT22;52783;50.502;8.190;2022-12-18T15:13:26;-4.60;99.90
66013;DHT22;52783;50.502;8.190;2022-12-18T15:15:53;-4.60;99.90
66013;DHT22;52783;50.502;8.190;2022-12-18T15:18:23;-4.50;99.90
66013;DHT22;52783;50.502;8.190;2022-12-18T15:20:53;-4.40;99.90
66013;DHT22;52783;50.502;8.190;2022-12-18T15:23:34;-4.40;99.90
66013;DHT22;52783;50.502;8.190;2022-12-18T15:26:08;-4.50;99.90
66013;DHT22;52783;50.502;8.190;2022-12-18T15:33:39;-4.70;99.90
66013;DHT22;52783;50.502;8.190;2022-12-18T15:36:10;-4.70;99.90
66013;DHT22;52783;50.502;8.190;2022-12-18T15:38:36;-4.80;99.90
66013;DHT22;52783;50.502;8.190;2022-12-18T15:41:02;-4.80;99.90
66013;DHT22;52783;50.502;8.190;2022-12-18T15:43:28;-4.80;99.90
66013;DHT22;52783;50.502;8.190;2022-12-18T15:46:04;-4.80;99.90
66013;DHT22;52783;50.502;8.190;2022-12-18T15:48:38;-4.90;99.90
66013;DHT22;52783;50.502;8.190;2022-12-18T15:51:07;-4.90;99.90
66013;DHT22;52783;50.502;8.190;2022-12-18T15:53:36;-4.80;99.90
66013;DHT22;52783;50.502;8.190;2022-12-18T15:56:01;-4.70;99.90
66013;DHT22;52783;50.502;8.190;2022-12-18T15:58:46;-4.70;99.90
66013;DHT22;52783;50.502;8.190;2022-12-18T16:01:25;-4.80;99.90
66013;DHT22;52783;50.502;8.190;2022-12-18T16:03:51;-4.90;99.90
66013;DHT22;52783;50.502;8.190;2022-12-18T16:06:16;-4.90;99.90
66013;DHT22;52783;50.502;8.190;2022-12-18T16:08:42;-4.80;99.90
66013;DHT22;52783;50.502;8.190;2022-12-18T16:11:28;-4.70;99.90
66013;DHT22;52783;50.502;8.190;2022-12-18T16:14:28;-4.70;99.90
66013;DHT22;52783;50.502;8.190;2022-12-18T16:16:57;-4.60;99.90
66013;DHT22;52783;50.502;8.190;2022-12-18T16:19:24;-4.60;99.90
66013;DHT22;52783;50.502;8.190;2022-12-18T16:21:51;-4.60;99.90
66013;DHT22;52783;50.502;8.190;2022-12-18T16:24:22;-4.60;99.90
66013;DHT22;52783;50.502;8.190;2022-12-18T16:26:48;-4.60;99.90
66013;DHT22;52783;50.502;8.190;2022-12-18T16:29:14;-4.70;99.90
66013;DHT22;52783;50.502;8.190;2022-12-18T16:31:40;-4.60;99.90
66013;DHT22;52783;50.502;8.190;2022-12-18T16:36:35;-4.70;99.90
66013;DHT22;52783;50.502;8.190;2022-12-18T16:39:01;-4.70;99.90
66013;DHT22;52783;50.502;8.190;2022-12-18T16:41:26;-4.60;99.90
66013;DHT22;52783;50.502;8.190;2022-12-18T16:43:59;-4.60;99.90
66013;DHT22;52783;50.502;8.190;2022-12-18T16:46:25;-4.60;99.90
66013;DHT22;52783;50.502;8.190;2022-12-18T16:48:50;-4.60;99.90
66013;DHT22;52783;50.502;8.190;2022-12-18T16:51:16;-4.60;99.90
66013;DHT22;52783;50.502;8.190;2022-12-18T16:53:42;-4.50;99.90
66013;DHT22;52783;50.502;8.190;2022-12-18T16:56:07;-4.40;99.90
66013;DHT22;52783;50.502;8.190;2022-12-18T16:58:33;-4.50;99.90
66013;DHT22;52783;50.502;8.190;2022-12-18T17:00:59;-4.40;99.90
66013;DHT22;52783;50.502;8.190;2022-12-18T17:03:25;-4.40;99.90
66013;DHT22;52783;50.502;8.190;2022-12-18T17:05:50;-4.40;99.90
66013;DHT22;52783;50.502;8.190;2022-12-18T17:08:16;-4.40;99.90
66013;DHT22;52783;50.502;8.190;2022-12-18T17:10:42;-4.40;99.90
66013;DHT22;52783;50.502;8.190;2022-12-18T17:13:07;-4.50;99.90
66013;DHT22;52783;50.502;8.190;2022-12-18T17:15:36;-4.40;99.90
66013;DHT22;52783;50.502;8.190;2022-12-18T17:18:02;-4.40;99.90
66013;DHT22;52783;50.502;8.190;2022-12-18T17:20:29;-4.20;99.90
66013;DHT22;52783;50.502;8.190;2022-12-18T17:22:58;-4.30;99.90
66013;DHT22;52783;50.502;8.190;2022-12-18T17:25:23;-4.20;99.90
66013;DHT22;52783;50.502;8.190;2022-12-18T17:27:50;-4.20;99.90
66013;DHT22;52783;50.502;8.190;2022-12-18T17:30:15;-4.40;99.90
66013;DHT22;52783;50.502;8.190;2022-12-18T17:32:41;-4.50;99.90
66013;DHT22;52783;50.502;8.190;2022-12-18T17:35:07;-4.50;99.90
66013;DHT22;52783;50.502;8.190;2022-12-18T17:37:32;-4.50;99.90
66013;DHT22;52783;50.502;8.190;2022-12-18T17:39:58;-4.60;99.90
66013;DHT22;52783;50.502;8.190;2022-12-18T17:42:23;-4.50;99.90